Time,TemperatureF,DewpointF,PressureIn,WindDirection,WindDirectionDegrees,WindSpeedMPH,WindSpeedGustMPH,Humidity,HourlyPrecipIn,Conditions,Clouds,dailyrainin,SolarRadiationWatts/m^2,SoftwareType,DateUTC
2013-02-28 00:11:00,31.0,27.0,-100.00,NNW,348,1.0,3.0,86,0.00,,,0.06,0.000000,,2013-02-28 09:11:00,
2013-02-28 00:21:00,31.0,27.0,-100.00,NNW,348,1.0,3.0,86,0.00,,,0.06,0.000000,,2013-02-28 09:21:00,
2013-02-28 00:31:00,31.0,27.0,-100.00,NNW,348,1.0,3.0,86,0.00,,,0.06,0.000000,,2013-02-28 09:31:00,
2013-02-28 00:41:00,31.0,27.0,-100.00,NNW,348,1.0,3.0,86,0.00,,,0.06,0.000000,,2013-02-28 09:41:00,
2013-02-28 00:51:00,31.0,27.0,-100.00,NNW,348,1.0,3.0,86,0.00,,,0.06,0.000000,,2013-02-28 09:51:00,
2013-02-28 01:21:00,29.0,26.0,-100.00,North,349,2.0,6.0,87,0.00,,,0.06,0.000000,,2013-02-28 10:21:00,
2013-02-28 01:32:00,29.0,26.0,-100.00,North,349,2.0,6.0,87,0.00,,,0.06,0.000000,,2013-02-28 10:32:00,
2013-02-28 01:42:00,29.0,26.0,-100.00,North,349,2.0,6.0,87,0.00,,,0.06,0.000000,,2013-02-28 10:42:00,
2013-02-28 01:51:00,29.0,26.0,-100.00,North,349,2.0,6.0,87,0.00,,,0.06,0.000000,,2013-02-28 10:51:00,
2013-02-28 02:11:00,28.0,26.0,-100.00,NW,310,3.0,6.0,91,0.00,,,0.06,0.000000,,2013-02-28 11:11:00,
2013-02-28 02:21:00,28.0,26.0,-100.00,NW,310,3.0,6.0,91,0.00,,,0.06,0.000000,,2013-02-28 11:21:00,
2013-02-28 02:32:00,28.0,26.0,-100.00,NW,310,3.0,6.0,91,0.00,,,0.06,0.000000,,2013-02-28 11:32:00,
2013-02-28 02:41:00,28.0,26.0,-100.00,NW,310,3.0,6.0,91,0.00,,,0.06,0.000000,,2013-02-28 11:41:00,
2013-02-28 02:52:00,28.0,26.0,-100.00,NW,310,3.0,6.0,91,0.00,,,0.06,0.000000,,2013-02-28 11:52:00,
2013-02-28 03:21:00,28.0,25.0,-100.00,NNW,341,3.0,7.0,88,0.00,,,0.06,0.000000,,2013-02-28 12:21:00,
2013-02-28 03:32:00,28.0,25.0,-100.00,NNW,341,3.0,7.0,88,0.00,,,0.06,0.000000,,2013-02-28 12:32:00,
2013-02-28 03:42:00,28.0,25.0,-100.00,NNW,341,3.0,7.0,88,0.00,,,0.06,0.000000,,2013-02-28 12:42:00,
2013-02-28 03:52:00,28.0,25.0,-100.00,NNW,341,3.0,7.0,88,0.00,,,0.06,0.000000,,2013-02-28 12:52:00,
2013-02-28 04:21:00,28.0,25.0,-100.00,WNW,290,1.0,7.0,89,0.00,,,0.06,0.000000,,2013-02-28 13:21:00,
2013-02-28 04:32:00,28.0,25.0,-100.00,WNW,290,1.0,7.0,89,0.00,,,0.06,0.000000,,2013-02-28 13:32:00,
2013-02-28 04:42:00,28.0,25.0,-100.00,WNW,290,1.0,7.0,89,0.00,,,0.06,0.000000,,2013-02-28 13:42:00,
2013-02-28 04:52:00,28.0,25.0,-100.00,WNW,290,1.0,7.0,89,0.00,,,0.06,0.000000,,2013-02-28 13:52:00,
2013-02-28 05:11:00,28.0,26.0,-100.00,WNW,291,1.0,3.0,91,0.00,,,0.06,0.000000,,2013-02-28 14:11:00,
2013-02-28 05:21:00,28.0,26.0,-100.00,WNW,291,1.0,3.0,91,0.00,,,0.06,0.000000,,2013-02-28 14:21:00,
2013-02-28 05:32:00,28.0,26.0,-100.00,WNW,291,1.0,3.0,91,0.00,,,0.06,0.000000,,2013-02-28 14:32:00,
2013-02-28 05:42:00,28.0,26.0,-100.00,WNW,291,1.0,3.0,91,0.00,,,0.06,0.000000,,2013-02-28 14:42:00,
2013-02-28 05:52:00,28.0,26.0,-100.00,WNW,291,1.0,3.0,91,0.00,,,0.06,0.000000,,2013-02-28 14:52:00,
2013-02-28 06:21:00,28.0,25.0,-100.00,NNW,346,2.0,6.0,87,0.00,,,0.06,0.000000,,2013-02-28 15:21:00,
2013-02-28 06:32:00,28.0,25.0,-100.00,NNW,346,2.0,6.0,87,0.00,,,0.06,0.000000,,2013-02-28 15:32:00,
2013-02-28 06:41:00,28.0,25.0,-100.00,NNW,346,2.0,6.0,87,0.00,,,0.06,0.000000,,2013-02-28 15:41:00,
2013-02-28 06:52:00,28.0,25.0,-100.00,NNW,346,2.0,6.0,87,0.00,,,0.06,0.000000,,2013-02-28 15:52:00,
2013-02-28 07:22:00,28.0,23.0,-100.00,NNW,330,3.0,8.0,82,0.00,,,0.06,0.000000,,2013-02-28 16:22:00,
2013-02-28 07:32:00,28.0,23.0,-100.00,NNW,330,3.0,8.0,82,0.00,,,0.06,0.000000,,2013-02-28 16:32:00,
2013-02-28 07:42:00,28.0,23.0,-100.00,NNW,330,3.0,8.0,82,0.00,,,0.06,0.000000,,2013-02-28 16:42:00,
2013-02-28 07:52:00,28.0,23.0,-100.00,NNW,330,3.0,8.0,82,0.00,,,0.06,0.000000,,2013-02-28 16:52:00,
2013-02-28 08:11:00,27.0,22.0,-100.00,NW,305,2.0,8.0,82,0.00,,,0.06,0.000000,,2013-02-28 17:11:00,
2013-02-28 08:21:00,27.0,22.0,-100.00,NW,305,2.0,8.0,82,0.00,,,0.06,0.000000,,2013-02-28 17:21:00,
2013-02-28 08:32:00,27.0,22.0,-100.00,NW,305,2.0,8.0,82,0.00,,,0.06,0.000000,,2013-02-28 17:32:00,
2013-02-28 08:41:00,27.0,22.0,-100.00,NW,305,2.0,8.0,82,0.00,,,0.06,0.000000,,2013-02-28 17:41:00,
2013-02-28 08:52:00,27.0,22.0,-100.00,NW,305,2.0,8.0,82,0.00,,,0.06,0.000000,,2013-02-28 17:52:00,
2013-02-28 09:11:00,27.0,23.0,-100.00,NW,306,1.0,4.0,85,0.00,,,0.06,11.000000,,2013-02-28 18:11:00,
2013-02-28 09:21:00,27.0,23.0,-100.00,NW,306,1.0,4.0,85,0.00,,,0.06,11.000000,,2013-02-28 18:21:00,
2013-02-28 09:32:00,27.0,23.0,-100.00,NW,306,1.0,4.0,85,0.00,,,0.06,11.000000,,2013-02-28 18:32:00,
2013-02-28 09:42:00,27.0,23.0,-100.00,NW,306,1.0,4.0,85,0.00,,,0.06,11.000000,,2013-02-28 18:42:00,
2013-02-28 09:52:00,27.0,23.0,-100.00,NW,306,1.0,4.0,85,0.00,,,0.06,11.000000,,2013-02-28 18:52:00,
2013-02-28 10:11:00,28.0,24.0,-100.00,NNW,333,2.0,6.0,83,0.00,,,0.06,60.000000,,2013-02-28 19:11:00,
2013-02-28 10:21:00,28.0,24.0,-100.00,NNW,333,2.0,6.0,83,0.00,,,0.06,60.000000,,2013-02-28 19:21:00,
2013-02-28 10:32:00,28.0,24.0,-100.00,NNW,333,2.0,6.0,83,0.00,,,0.06,60.000000,,2013-02-28 19:32:00,
2013-02-28 10:41:00,28.0,24.0,-100.00,NNW,333,2.0,6.0,83,0.00,,,0.06,60.000000,,2013-02-28 19:41:00,
2013-02-28 10:51:00,28.0,24.0,-100.00,NNW,333,2.0,6.0,83,0.00,,,0.06,60.000000,,2013-02-28 19:51:00,
2013-02-28 11:12:00,30.0,25.0,-100.00,North,354,1.0,4.0,80,0.00,,,0.06,102.000000,,2013-02-28 20:12:00,
2013-02-28 11:21:00,30.0,25.0,-100.00,North,354,1.0,4.0,80,0.00,,,0.06,102.000000,,2013-02-28 20:21:00,
2013-02-28 11:31:00,30.0,25.0,-100.00,North,354,1.0,4.0,80,0.00,,,0.06,102.000000,,2013-02-28 20:31:00,
2013-02-28 11:41:00,30.0,25.0,-100.00,North,354,1.0,4.0,80,0.00,,,0.06,102.000000,,2013-02-28 20:41:00,
2013-02-28 11:52:00,30.0,25.0,-100.00,North,354,1.0,4.0,80,0.00,,,0.06,102.000000,,2013-02-28 20:52:00,
2013-02-28 12:11:00,34.0,27.0,-100.00,NE,41,0.0,5.0,75,0.00,,,0.06,161.000000,,2013-02-28 21:11:00,
2013-02-28 12:22:00,34.0,27.0,-100.00,NE,41,0.0,5.0,75,0.00,,,0.06,161.000000,,2013-02-28 21:22:00,
2013-02-28 12:31:00,34.0,27.0,-100.00,NE,41,0.0,5.0,75,0.00,,,0.06,161.000000,,2013-02-28 21:31:00,
2013-02-28 12:41:00,34.0,27.0,-100.00,NE,41,0.0,5.0,75,0.00,,,0.06,161.000000,,2013-02-28 21:41:00,
2013-02-28 12:51:00,34.0,27.0,-100.00,NE,41,0.0,5.0,75,0.00,,,0.06,161.000000,,2013-02-28 21:51:00,
2013-02-28 13:11:00,36.0,27.0,-100.00,NNE,17,1.0,4.0,69,0.00,,,0.06,193.000000,,2013-02-28 22:11:00,
2013-02-28 13:21:00,36.0,27.0,-100.00,NNE,17,1.0,4.0,69,0.00,,,0.06,193.000000,,2013-02-28 22:21:00,
2013-02-28 13:31:00,36.0,27.0,-100.00,NNE,17,1.0,4.0,69,0.00,,,0.06,193.000000,,2013-02-28 22:31:00,
2013-02-28 13:41:00,36.0,27.0,-100.00,NNE,17,1.0,4.0,69,0.00,,,0.06,193.000000,,2013-02-28 22:41:00,
2013-02-28 13:52:00,36.0,27.0,-100.00,NNE,17,1.0,4.0,69,0.00,,,0.06,193.000000,,2013-02-28 22:52:00,
2013-02-28 14:21:00,36.0,27.0,-100.00,NNW,345,3.0,6.0,70,0.00,,,0.05,182.000000,,2013-02-28 23:21:00,
2013-02-28 14:31:00,36.0,27.0,-100.00,NNW,345,3.0,6.0,70,0.00,,,0.05,182.000000,,2013-02-28 23:31:00,
2013-02-28 14:41:00,36.0,27.0,-100.00,NNW,345,3.0,6.0,70,0.00,,,0.05,182.000000,,2013-02-28 23:41:00,
2013-02-28 14:52:00,36.0,27.0,-100.00,NNW,345,3.0,6.0,70,0.00,,,0.05,182.000000,,2013-02-28 23:52:00,
2013-02-28 15:11:00,38.0,27.0,-100.00,NNE,27,2.0,6.0,64,0.01,,,-99.99,225.000000,,2013-03-01 00:11:00,
2013-02-28 15:22:00,38.0,27.0,-100.00,NNE,27,2.0,6.0,64,0.01,,,-99.99,225.000000,,2013-03-01 00:22:00,
2013-02-28 15:32:00,38.0,27.0,-100.00,NNE,27,2.0,6.0,64,0.01,,,-99.99,225.000000,,2013-03-01 00:32:00,
2013-02-28 15:41:00,38.0,27.0,-100.00,NNE,27,2.0,6.0,64,0.01,,,-99.99,225.000000,,2013-03-01 00:41:00,
2013-02-28 15:51:00,38.0,27.0,-100.00,NNE,27,2.0,6.0,64,0.01,,,-99.99,225.000000,,2013-03-01 00:51:00,
2013-02-28 16:21:00,37.0,26.0,-100.00,NNW,348,2.0,9.0,63,0.01,,,0.03,184.000000,,2013-03-01 01:21:00,
2013-02-28 16:31:00,37.0,26.0,-100.00,NNW,348,2.0,9.0,63,0.01,,,0.03,184.000000,,2013-03-01 01:31:00,
2013-02-28 16:42:00,37.0,26.0,-100.00,NNW,348,2.0,9.0,63,0.01,,,0.03,184.000000,,2013-03-01 01:42:00,
2013-02-28 16:51:00,37.0,26.0,-100.00,NNW,348,2.0,9.0,63,0.01,,,0.03,184.000000,,2013-03-01 01:51:00,
2013-02-28 17:11:00,35.0,25.0,-100.00,North,352,1.0,6.0,66,0.01,,,0.04,78.000000,,2013-03-01 02:11:00,
2013-02-28 17:21:00,35.0,25.0,-100.00,North,352,1.0,6.0,66,0.01,,,0.04,78.000000,,2013-03-01 02:21:00,
2013-02-28 17:31:00,35.0,25.0,-100.00,North,352,1.0,6.0,66,0.01,,,0.04,78.000000,,2013-03-01 02:31:00,
2013-02-28 17:42:00,35.0,25.0,-100.00,North,352,1.0,6.0,66,0.01,,,0.04,78.000000,,2013-03-01 02:42:00,
2013-02-28 17:52:00,35.0,25.0,-100.00,North,352,1.0,6.0,66,0.01,,,0.04,78.000000,,2013-03-01 02:52:00,
2013-02-28 18:11:00,34.0,24.0,-100.00,ESE,104,0.0,4.0,66,0.00,,,-99.99,34.000000,,2013-03-01 03:11:00,
2013-02-28 18:21:00,34.0,24.0,-100.00,ESE,104,0.0,4.0,66,0.00,,,-99.99,34.000000,,2013-03-01 03:21:00,
2013-02-28 18:32:00,34.0,24.0,-100.00,ESE,104,0.0,4.0,66,0.00,,,-99.99,34.000000,,2013-03-01 03:32:00,
2013-02-28 18:41:00,34.0,24.0,-100.00,ESE,104,0.0,4.0,66,0.00,,,-99.99,34.000000,,2013-03-01 03:41:00,
2013-02-28 18:51:00,34.0,24.0,-100.00,ESE,104,0.0,4.0,66,0.00,,,-99.99,34.000000,,2013-03-01 03:51:00,
2013-02-28 19:11:00,32.0,25.0,-100.00,West,261,0.0,4.0,74,0.00,,,0.04,4.000000,,2013-03-01 04:11:00,
2013-02-28 19:21:00,32.0,25.0,-100.00,West,261,0.0,4.0,74,0.00,,,0.04,4.000000,,2013-03-01 04:21:00,
2013-02-28 19:31:00,32.0,25.0,-100.00,West,261,0.0,4.0,74,0.00,,,0.04,4.000000,,2013-03-01 04:31:00,
2013-02-28 19:41:00,32.0,25.0,-100.00,West,261,0.0,4.0,74,0.00,,,0.04,4.000000,,2013-03-01 04:41:00,
2013-02-28 19:51:00,32.0,25.0,-100.00,West,261,0.0,4.0,74,0.00,,,0.04,4.000000,,2013-03-01 04:51:00,
2013-02-28 20:22:00,30.0,24.0,-100.00,WNW,296,0.0,0.0,79,0.00,,,0.03,0.000000,,2013-03-01 05:22:00,
2013-02-28 20:32:00,30.0,24.0,-100.00,WNW,296,0.0,0.0,79,0.00,,,0.03,0.000000,,2013-03-01 05:32:00,
2013-02-28 20:42:00,30.0,24.0,-100.00,WNW,296,0.0,0.0,79,0.00,,,0.03,0.000000,,2013-03-01 05:42:00,
2013-02-28 20:52:00,30.0,24.0,-100.00,WNW,296,0.0,0.0,79,0.00,,,0.03,0.000000,,2013-03-01 05:52:00,
2013-02-28 21:21:00,29.0,27.0,-100.00,SSW,197,0.0,0.0,92,0.00,,,0.03,0.000000,,2013-03-01 06:21:00,
2013-02-28 21:32:00,29.0,27.0,-100.00,SSW,197,0.0,0.0,92,0.00,,,0.03,0.000000,,2013-03-01 06:32:00,
2013-02-28 21:42:00,29.0,27.0,-100.00,SSW,197,0.0,0.0,92,0.00,,,0.03,0.000000,,2013-03-01 06:42:00,
2013-02-28 21:52:00,29.0,27.0,-100.00,SSW,197,0.0,0.0,92,0.00,,,0.03,0.000000,,2013-03-01 06:52:00,
2013-02-28 22:11:00,27.0,26.0,-100.00,South,191,0.0,0.0,97,0.00,,,0.03,0.000000,,2013-03-01 07:11:00,
2013-02-28 22:21:00,27.0,26.0,-100.00,South,191,0.0,0.0,97,0.00,,,0.03,0.000000,,2013-03-01 07:21:00,
2013-02-28 22:32:00,27.0,26.0,-100.00,South,191,0.0,0.0,97,0.00,,,0.03,0.000000,,2013-03-01 07:32:00,
2013-02-28 22:42:00,27.0,26.0,-100.00,South,191,0.0,0.0,97,0.00,,,0.03,0.000000,,2013-03-01 07:42:00,
2013-02-28 22:51:00,27.0,26.0,-100.00,South,191,0.0,0.0,97,0.00,,,0.03,0.000000,,2013-03-01 07:51:00,
2013-02-28 23:22:00,27.0,27.0,-100.00,WNW,287,0.0,0.0,99,0.00,,,0.03,0.000000,,2013-03-01 08:22:00,
2013-02-28 23:32:00,27.0,27.0,-100.00,WNW,287,0.0,0.0,99,0.00,,,0.03,0.000000,,2013-03-01 08:32:00,
2013-02-28 23:42:00,27.0,27.0,-100.00,WNW,287,0.0,0.0,99,0.00,,,0.03,0.000000,,2013-03-01 08:42:00,
2013-02-28 23:52:00,27.0,27.0,-100.00,WNW,287,0.0,0.0,99,0.00,,,0.03,0.000000,,2013-03-01 08:52:00,